Latest Weather Observations for Scherger

IDQ60801

Issued at 10:02 pm EST Friday 29 April 2016 (issued every 30 minutes, with the page automatically refreshed every 10 minutes)

About weather observations | Map of weather stations | Latest weather observations for QLD | Other Formats
Station Details ID: 027075 Name: SCHERGER RAAF Lat: -12.62 Lon: 142.09 Height: 39.34 m
Data from the previous 72 hours. | See also: Recent months at Scherger
Date/Time
EST
Temp
°C
App
Temp
°C
Dew
Point
Rel
Hum
%
Delta-T
°C
Wind Press
QNH
hPa
Press
MSL
hPa
Rain
since 9 am
mm
Dir
 
Spd
km/h
Gust
km/h
Spd
kts
Gust
kts
29/10:00pm 25.8 29.6 23.5 87 1.6 SE 9 15 5 8 1013.0 1012.8 3.2
29/09:30pm 25.7 30.1 23.4 87 1.6 SE 6 11 3 6 1013.0 1012.8 3.2
29/09:00pm 26.0 30.2 23.5 86 1.7 SE 7 17 4 9 1012.9 1012.7 3.2
29/08:30pm 26.0 29.8 23.5 86 1.7 SE 9 15 5 8 1012.6 1012.4 3.2
29/08:00pm 26.2 29.6 23.3 84 2.0 SE 11 15 6 8 1012.3 1012.1 3.2
29/07:30pm 26.7 30.1 23.4 82 2.3 ESE 11 19 6 10 1011.9 1011.6 3.2
29/07:00pm 26.6 30.0 23.3 82 2.3 ESE 11 17 6 9 1011.5 1011.2 3.0
29/06:30pm 26.9 30.8 23.6 82 2.3 ESE 9 15 5 8 1011.2 1010.9 2.8
29/06:00pm 26.9 31.1 23.4 81 2.4 ESE 7 15 4 8 1010.6 1010.3 2.6
29/05:30pm 26.9 30.8 23.6 82 2.3 ENE 9 17 5 9 1010.2 1009.9 2.4
29/05:00pm 27.9 32.0 23.9 79 2.8 E 9 17 5 9 1009.9 1009.6 2.2
29/04:30pm 27.6 33.8 25.2 87 1.7 ESE 2 7 1 4 1009.5 1009.2 1.8
29/04:00pm 28.2 30.6 22.9 73 3.6 SE 15 28 8 15 1009.5 1009.2 1.4
29/03:30pm 28.8 33.0 24.1 76 3.3 SE 9 20 5 11 1009.1 1008.8 1.4
29/03:00pm 31.5 36.6 26.1 73 3.9 ENE 11 15 6 8 1009.1 1008.8 1.2
29/02:30pm 28.4 33.1 25.0 82 2.4 ENE 9 13 5 7 1009.2 1008.9 0.6
29/02:00pm 32.0 35.5 23.5 60 5.9 ENE 11 17 6 9 1009.2 1008.9 0.0
29/01:30pm 31.6 35.3 24.5 66 5.0 ESE 13 28 7 15 1009.6 1009.3 0.0
29/01:00pm 30.0 33.1 24.2 71 4.0 SE 15 20 8 11 1010.1 1009.8 0.0
29/12:30pm 31.0 34.3 23.9 66 4.9 E 13 19 7 10 1010.5 1010.2 0.0
29/12:00pm 29.1 32.1 23.3 71 4.0 SE 13 22 7 12 1011.2 1010.9 0.0
29/11:30am 30.9 34.3 24.1 67 4.7 ESE 13 20 7 11 1011.6 1011.3 0.0
29/11:00am 29.1 31.8 23.5 72 3.9 E 15 32 8 17 1012.0 1011.8 0.0
29/10:30am 28.5 31.8 23.9 76 3.2 ESE 13 24 7 13 1012.6 1012.4 0.0
29/10:00am 28.8 32.1 23.9 75 3.4 E 13 20 7 11 1012.7 1012.5 0.0
29/09:30am 27.8 30.6 23.6 78 2.9 ESE 15 24 8 13 1012.7 1012.5 0.0
29/09:26am 27.8 31.1 23.8 79 2.8 ESE 13 20 7 11 1012.7 1012.5 0.0
29/09:00am 27.2 29.9 23.4 80 2.6 ESE 15 22 8 12 1012.7 1012.5 1.0
29/08:30am 27.0 30.5 23.5 81 2.4 SE 11 20 6 11 1012.2 1012.0 1.0
29/08:00am 25.6 29.0 23.3 87 1.6 SE 11 19 6 10 1011.7 1011.4 1.0
29/07:45am 25.1 28.8 23.2 89 1.3 SE 9 15 5 8 1011.7 1011.4 1.0
29/07:30am 24.8 28.1 23.2 91 1.1 SSE 11 15 6 8 1011.8 1011.5 1.0
29/07:00am 24.3 27.5 23.1 93 0.8 SSE 11 17 6 9 1011.7 1011.4 1.0
29/06:30am 24.1 27.5 22.7 92 0.9 S 9 17 5 9 1011.4 1011.1 1.0
29/06:02am 24.1 27.6 22.9 93 0.8 S 9 15 5 8 1011.0 1010.7 1.0
29/06:00am 24.2 27.8 23.0 93 0.8 S 9 15 5 8 1010.9 1010.6 1.0
29/05:51am 24.1 27.6 22.9 93 0.8 SSE 9 15 5 8 1010.8 1010.5 1.0
29/05:34am 24.1 27.5 22.7 92 0.9 S 9 15 5 8 1010.7 1010.4 1.0
29/05:30am 24.2 27.7 22.8 92 0.9 S 9 15 5 8 1010.6 1010.3 1.0
29/05:00am 24.5 28.1 23.1 92 0.9 SSE 9 13 5 7 1010.3 1010.0 1.0
29/04:30am 24.3 28.2 22.9 92 0.9 SE 7 11 4 6 1010.2 1009.9 1.0
29/04:00am 24.3 27.8 22.9 92 0.9 SSE 9 13 5 7 1010.3 1010.0 1.0
29/03:47am 24.3 27.8 22.9 92 0.9 SSE 9 13 5 7 1010.2 1009.9 1.0
29/03:30am 24.3 28.2 22.9 92 0.9 SSE 7 11 4 6 1010.4 1010.1 1.0
29/03:07am 24.5 28.0 22.9 91 1.1 SSE 9 15 5 8 1010.5 1010.2 1.0
29/03:00am 24.5 27.6 22.9 91 1.1 SSE 11 15 6 8 1010.4 1010.1 1.0
29/02:30am 24.7 28.3 23.1 91 1.1 SSE 9 13 5 7 1010.7 1010.4 1.0
29/02:00am 24.7 28.6 22.9 90 1.2 SE 7 13 4 7 1010.6 1010.3 1.0
29/01:30am 24.7 28.6 22.9 90 1.2 SE 7 13 4 7 1010.9 1010.6 1.0
29/01:00am 24.9 28.9 23.1 90 1.2 SSE 7 13 4 7 1011.3 1011.0 1.0
29/12:30am 24.7 28.6 22.9 90 1.2 SE 7 9 4 5 1011.8 1011.5 1.0
29/12:00am 24.8 28.9 23.0 90 1.2 SE 6 9 3 5 1011.8 1011.5 1.0
 
Date/Time
EST
Temp
°C
App
Temp
°C
Dew
Point
Rel
Hum
%
Delta-T
°C
Wind Press
QNH
hPa
Press
MSL
hPa
Rain
since 9 am
mm
Dir
 
Spd
km/h
Gust
km/h
Spd
kts
Gust
kts
28/11:30pm 25.0 29.2 23.2 90 1.2 SE 6 9 3 5 1012.1 1011.9 1.0
28/11:00pm 25.1 29.5 23.5 91 1.1 SSE 6 9 3 5 1012.3 1012.1 1.0
28/10:30pm 25.1 29.3 23.5 91 1.1 SSE 7 9 4 5 1012.2 1012.0 1.0
28/10:00pm 25.2 30.8 23.6 91 1.1 CALM 0 4 0 2 1012.2 1012.0 1.0
28/09:30pm 25.3 29.7 23.5 90 1.2 ESE 6 7 3 4 1012.0 1011.8 1.0
28/09:00pm 25.3 29.5 23.5 90 1.2 ESE 7 11 4 6 1011.7 1011.4 1.0
28/08:30pm 25.5 29.7 23.4 88 1.4 E 7 11 4 6 1011.5 1011.2 0.8
28/08:00pm 26.8 30.2 23.3 81 2.4 E 11 20 6 11 1011.1 1010.8 0.0
28/07:30pm 27.8 31.0 23.0 75 3.3 ESE 11 19 6 10 1010.6 1010.3 0.0
28/07:00pm 28.1 31.4 22.6 72 3.7 ESE 9 17 5 9 1009.9 1009.6 0.0
28/06:30pm 28.7 31.6 22.4 68 4.3 E 11 17 6 9 1009.3 1009.0 0.0
28/06:00pm 29.0 32.4 22.7 69 4.3 ESE 9 17 5 9 1009.0 1008.7 0.0
28/05:30pm 29.8 33.6 23.5 69 4.3 ESE 9 22 5 12 1008.9 1008.6 0.0
28/05:00pm 30.1 33.8 23.3 67 4.7 E 9 17 5 9 1008.5 1008.2 0.0
28/04:30pm 30.0 33.0 22.7 65 5.0 ESE 11 19 6 10 1008.5 1008.2 0.0
28/04:00pm 30.9 34.3 23.3 64 5.3 ESE 11 20 6 11 1008.4 1008.1 0.0
28/03:30pm 30.4 34.4 23.8 68 4.6 ESE 9 15 5 8 1008.4 1008.1 0.0
28/03:00pm 29.7 33.4 23.9 71 4.0 NE 11 24 6 13 1008.6 1008.3 0.0
28/02:30pm 30.3 33.7 24.0 69 4.4 ESE 13 20 7 11 1008.4 1008.1 0.0
28/02:00pm 30.5 32.6 22.4 62 5.5 E 15 26 8 14 1008.8 1008.5 0.0
28/01:30pm 30.2 33.1 23.1 65 4.9 ENE 13 26 7 14 1009.1 1008.8 0.0
28/01:00pm 30.8 35.7 24.7 70 4.3 ENE 7 15 4 8 1009.5 1009.2 0.0
28/12:30pm 31.2 34.4 23.0 61 5.6 ESE 11 19 6 10 1009.9 1009.6 0.0
28/12:00pm 30.5 33.0 23.2 65 5.0 ESE 15 26 8 14 1010.4 1010.1 0.0
28/11:30am 29.7 31.7 22.2 64 5.1 ESE 15 22 8 12 1010.9 1010.6 0.0
28/11:00am 29.4 32.9 22.9 68 4.4 E 9 19 5 10 1011.4 1011.1 0.0
28/10:30am 30.0 32.0 22.9 65 4.9 ESE 17 28 9 15 1011.6 1011.3 0.0
28/10:00am 29.6 32.0 22.3 65 5.0 SE 13 26 7 14 1011.5 1011.2 0.0
28/09:30am 28.7 31.6 22.4 68 4.3 ESE 11 20 6 11 1011.5 1011.2 0.0
28/09:00am 27.6 29.4 21.9 71 3.8 ESE 15 24 8 13 1011.4 1011.1 0.0
28/08:30am 26.5 29.3 21.5 74 3.3 SE 9 17 5 9 1011.1 1010.8 0.0
28/08:00am 25.0 27.5 21.1 79 2.6 SE 9 17 5 9 1011.0 1010.7 0.0
28/07:30am 23.9 26.7 20.8 83 2.0 SSE 7 11 4 6 1010.6 1010.3 0.0
28/07:00am 23.1 25.4 20.6 86 1.6 SE 9 13 5 7 1010.1 1009.8 0.0
28/06:30am 23.1 25.5 20.8 87 1.5 SSE 9 15 5 8 1009.8 1009.5 0.0
28/06:00am 23.0 25.2 20.5 86 1.6 SSE 9 13 5 7 1009.5 1009.2 0.0
28/05:30am 23.3 25.7 20.8 86 1.6 SSE 9 13 5 7 1009.5 1009.2 0.0
28/05:00am 23.4 25.8 20.9 86 1.6 SSE 9 11 5 6 1009.4 1009.1 0.0
28/04:30am 23.5 25.9 20.8 85 1.8 SSE 9 13 5 7 1009.3 1009.0 0.0
28/04:00am 23.8 26.1 20.7 83 2.0 SE 9 13 5 7 1009.3 1009.0 0.0
28/03:30am 23.9 26.6 20.6 82 2.2 SE 7 15 4 8 1009.5 1009.2 0.0
28/03:00am 23.9 26.5 20.4 81 2.3 SSE 7 11 4 6 1009.7 1009.4 0.0
28/02:30am 24.1 26.9 20.4 80 2.4 ESE 6 11 3 6 1009.8 1009.5 0.0
28/02:00am 24.3 26.9 20.4 79 2.5 SSE 7 13 4 7 1010.1 1009.8 0.0
28/01:30am 24.5 27.1 20.4 78 2.7 SE 7 13 4 7 1010.2 1009.9 0.0
28/01:00am 24.7 27.4 20.6 78 2.7 SE 7 13 4 7 1010.6 1010.3 0.0
28/12:30am 24.8 27.4 20.5 77 2.8 SE 7 13 4 7 1010.8 1010.5 0.0
28/12:00am 25.0 27.2 20.5 76 2.9 SE 9 17 5 9 1011.2 1010.9 0.0
 
Date/Time
EST
Temp
°C
App
Temp
°C
Dew
Point
Rel
Hum
%
Delta-T
°C
Wind Press
QNH
hPa
Press
MSL
hPa
Rain
since 9 am
mm
Dir
 
Spd
km/h
Gust
km/h
Spd
kts
Gust
kts
27/11:30pm 25.3 27.0 20.1 73 3.4 SE 11 19 6 10 1011.3 1011.0 0.0
27/11:00pm 25.4 26.9 19.8 71 3.6 SE 11 17 6 9 1011.5 1011.2 0.0
27/10:30pm 25.8 27.5 19.4 67 4.1 SE 9 15 5 8 1011.7 1011.4 0.0
27/10:00pm 26.4 27.6 19.0 63 4.8 SE 11 22 6 12 1011.7 1011.4 0.0
27/09:30pm 26.4 27.7 18.5 62 5.0 SE 9 20 5 11 1011.6 1011.3 0.0
27/09:00pm 26.3 27.6 19.2 65 4.6 SE 11 19 6 10 1011.2 1010.9 0.0
27/08:30pm 26.3 28.5 19.7 67 4.3 SE 7 11 4 6 1010.8 1010.5 0.0
27/08:00pm 26.6 29.2 20.0 67 4.3 SE 6 9 3 5 1010.2 1009.9 0.0
27/07:30pm 26.9 29.5 20.0 66 4.5 SE 6 13 3 7 1009.7 1009.4 0.0
27/07:00pm 27.3 29.9 20.1 64 4.7 SE 6 9 3 5 1009.4 1009.1 0.0
27/06:30pm 28.1 30.5 20.1 62 5.2 ESE 7 15 4 8 1009.0 1008.7 0.0
27/06:00pm 29.0 31.6 20.4 59 5.7 ESE 7 13 4 7 1008.9 1008.6 0.0
27/05:30pm 29.9 30.9 20.2 56 6.4 ESE 15 24 8 13 1008.7 1008.4 0.0
27/05:00pm 31.7 32.7 20.3 50 7.6 ESE 15 28 8 15 1008.4 1008.1 0.0
27/04:30pm 31.6 33.5 20.5 51 7.4 E 11 17 6 9 1008.3 1008.0 0.0
27/04:00pm 31.3 33.4 20.9 54 7.0 ESE 11 24 6 13 1008.1 1007.8 0.0
27/03:30pm 31.6 33.4 21.2 54 7.0 SE 13 26 7 14 1008.2 1007.9 0.0
27/03:00pm 32.2 34.6 22.9 58 6.4 SE 15 26 8 14 1008.1 1007.8 0.0
27/02:30pm 30.9 31.4 20.8 55 6.7 ESE 19 37 10 20 1008.4 1008.1 0.0
27/02:00pm 31.5 32.9 21.9 56 6.5 ESE 17 30 9 16 1008.8 1008.5 0.0
27/01:30pm 32.1 34.6 22.5 57 6.6 E 13 24 7 13 1009.1 1008.8 0.0
27/01:00pm 31.6 33.2 21.5 55 6.8 SE 15 24 8 13 1009.6 1009.3 0.0
27/12:30pm 32.1 33.7 22.2 56 6.8 SE 17 26 9 14 1010.0 1009.7 0.0
27/12:00pm 31.7 33.3 21.5 54 6.9 SE 15 24 8 13 1010.4 1010.1 0.0
27/11:30am 31.0 32.7 20.9 55 6.8 ESE 13 22 7 12 1010.9 1010.6 0.0
27/11:00am 31.3 33.5 21.8 57 6.4 ESE 13 20 7 11 1011.3 1011.0 0.0
27/10:30am 29.5 31.3 21.2 61 5.5 ESE 13 32 7 17 1011.6 1011.3 0.0
27/10:00am 28.9 29.4 21.1 62 5.2 SE 20 32 11 17 1011.7 1011.4 0.0
27/09:30am 28.6 30.5 21.4 65 4.8 ESE 13 24 7 13 1011.7 1011.4 0.0
27/09:00am 27.7 28.7 21.0 67 4.4 SE 17 28 9 15 1011.4 1011.1 0.0
27/08:30am 26.5 29.0 21.0 72 3.6 SSE 9 13 5 7 1011.4 1011.1 0.0
27/08:00am 25.1 27.0 20.6 76 2.9 SSE 11 20 6 11 1011.4 1011.1 0.0
27/07:30am 23.9 26.1 20.4 81 2.3 SSE 9 15 5 8 1011.2 1010.9 0.0
27/07:00am 23.1 25.8 20.6 86 1.6 S 7 11 4 6 1010.9 1010.6 0.0
27/06:30am 22.7 25.5 20.4 87 1.5 S 6 9 3 5 1010.7 1010.4 0.0
27/06:00am 22.7 25.6 20.6 88 1.4 S 6 7 3 4 1010.4 1010.1 0.0
27/05:30am 22.9 26.9 20.6 87 1.5 CALM 0 0 0 0 1010.3 1010.0 0.0
27/05:00am 23.0 26.9 20.3 85 1.8 CALM 0 0 0 0 1010.0 1009.7 0.0
27/04:30am 23.3 26.5 20.4 84 1.9 S 4 7 2 4 1010.1 1009.8 0.0
27/04:00am 23.8 27.8 20.5 82 2.2 CALM 0 0 0 0 1010.0 1009.7 0.0
27/03:30am 24.2 27.1 20.7 81 2.3 SSE 6 11 3 6 1009.9 1009.6 0.0
27/03:00am 24.2 27.1 20.7 81 2.3 SSE 6 9 3 5 1009.9 1009.6 0.0
27/02:30am 24.2 26.9 20.7 81 2.3 SE 7 13 4 7 1010.1 1009.8 0.0
27/02:00am 24.0 26.7 20.3 80 2.4 SE 6 9 3 5 1010.1 1009.8 0.0
27/01:30am 24.2 26.9 20.3 79 2.5 SSE 6 9 3 5 1010.3 1010.0 0.0
27/01:00am 24.4 27.6 20.5 79 2.5 SE 4 7 2 4 1010.7 1010.4 0.0
27/12:30am 24.7 27.6 20.6 78 2.7 SE 6 9 3 5 1010.9 1010.6 0.0
27/12:00am 25.0 27.8 20.5 76 2.9 SE 6 7 3 4 1011.2 1010.9 0.0
 
Date/Time
EST
Temp
°C
App
Temp
°C
Dew
Point
Rel
Hum
%
Delta-T
°C
Wind Press
QNH
hPa
Press
MSL
hPa
Rain
since 9 am
mm
Dir
 
Spd
km/h
Gust
km/h
Spd
kts
Gust
kts
26/11:30pm 25.3 28.6 20.8 76 3.0 SE 4 9 2 5 1011.2 1010.9 0.0
26/11:00pm 25.6 27.6 20.8 75 3.2 ESE 11 17 6 9 1011.4 1011.1 0.0
26/10:30pm 25.5 28.5 21.2 77 2.8 SE 7 13 4 7 1011.7 1011.4 0.0

Other Formats:

Comma delimited format used in spreadsheet applications
http://www.bom.gov.au/fwo/IDQ60801/IDQ60801.94171.axf

JavaScript Object Notation format (JSON) in row-major order
http://www.bom.gov.au/fwo/IDQ60801/IDQ60801.94171.json